Time;durP1;ratioP1;P1;durP2;ratioP2;P2;SDS_P1;SDS_P2;PMS_P1;PMS_P2;Temp;Humidity;BMP_temperature;BMP_pressure;BME280_temperature;BME280_humidity;BME280_pressure;Samples;Min_cycle;Max_cycle;Signal;HPM_P1;HPM_P2
2023/09/08 00:01:52;;;;;;;11.50;6.63;;;19.30;43.50;;;;;;5040928;28;20899;-77
2023/09/08 00:04:19;;;;;;;10.38;6.80;;;19.50;43.10;;;;;;5046848;28;20430;-77
2023/09/08 00:06:45;;;;;;;9.02;6.60;;;19.40;42.60;;;;;;5045407;28;20391;-78
2023/09/08 00:09:11;;;;;;;12.05;6.70;;;19.30;43.20;;;;;;5040879;28;20371;-77
2023/09/08 00:11:37;;;;;;;8.70;6.80;;;19.30;43.30;;;;;;5039464;28;20406;-77
2023/09/08 00:14:03;;;;;;;10.10;7.00;;;19.30;43.60;;;;;;5037706;28;20470;-77
2023/09/08 00:16:29;;;;;;;9.90;7.15;;;19.40;44.00;;;;;;5039617;28;20441;-77
2023/09/08 00:18:55;;;;;;;9.80;7.40;;;19.60;43.70;;;;;;5037978;28;20419;-77
2023/09/08 00:21:21;;;;;;;9.00;6.93;;;19.40;44.00;;;;;;5035332;28;20429;-77
2023/09/08 00:23:46;;;;;;;9.65;7.07;;;19.20;45.10;;;;;;5014502;28;20391;-77
2023/09/08 00:26:12;;;;;;;9.07;6.80;;;19.00;46.50;;;;;;5036536;28;20445;-77
2023/09/08 00:28:37;;;;;;;9.10;6.95;;;19.00;46.90;;;;;;5039883;28;20433;-77
2023/09/08 00:31:04;;;;;;;8.63;7.00;;;18.80;47.30;;;;;;5038555;28;20384;-76
2023/09/08 00:33:30;;;;;;;8.98;6.95;;;18.80;47.70;;;;;;5019206;28;20421;-77
2023/09/08 00:35:57;;;;;;;8.67;6.97;;;18.70;48.20;;;;;;5020179;28;20399;-77
2023/09/08 00:38:23;;;;;;;9.57;6.83;;;18.70;48.00;;;;;;5044456;28;20414;-77
2023/09/08 00:40:49;;;;;;;10.40;7.10;;;18.80;47.60;;;;;;5045185;28;20387;-77
2023/09/08 00:43:14;;;;;;;11.80;6.80;;;18.80;47.30;;;;;;5043707;28;20406;-77
2023/09/08 00:45:42;;;;;;;11.98;7.28;;;18.80;46.80;;;;;;5036428;28;20403;-77
2023/09/08 00:48:08;;;;;;;9.23;7.30;;;18.90;47.00;;;;;;5036772;28;20446;-77
2023/09/08 00:50:35;;;;;;;11.65;6.95;;;18.80;47.30;;;;;;5038463;28;20442;-77
2023/09/08 00:53:02;;;;;;;10.73;7.55;;;18.80;47.70;;;;;;5035721;28;20902;-77
2023/09/08 00:55:27;;;;;;;8.10;6.80;;;18.80;48.00;;;;;;5035160;28;20402;-77
2023/09/08 00:57:53;;;;;;;9.37;7.30;;;18.80;48.50;;;;;;5035648;28;20383;-77
2023/09/08 01:00:19;;;;;;;9.80;7.10;;;18.80;48.20;;;;;;5036971;28;20421;-77
2023/09/08 01:02:45;;;;;;;14.05;7.75;;;18.70;48.80;;;;;;5036017;28;20407;-78
2023/09/08 01:05:11;;;;;;;9.48;7.53;;;18.70;49.50;;;;;;5018904;28;20395;-77
2023/09/08 01:07:37;;;;;;;10.93;7.00;;;18.60;49.90;;;;;;5033959;28;20390;-77
2023/09/08 01:10:05;;;;;;;9.50;6.85;;;18.50;51.10;;;;;;5016350;28;20427;-77
2023/09/08 01:12:31;;;;;;;11.30;7.70;;;18.50;51.80;;;;;;5034368;28;20390;-77
2023/09/08 01:14:57;;;;;;;9.73;7.78;;;18.40;52.50;;;;;;5033616;28;20383;-77
2023/09/08 01:17:22;;;;;;;10.60;7.10;;;18.40;53.20;;;;;;5034673;28;20887;-77
2023/09/08 01:19:52;;;;;;;9.63;7.77;;;18.40;53.10;;;;;;5033241;28;20383;-77
2023/09/08 01:22:38;;;;;;;10.95;7.82;;;18.40;53.60;;;;;;5033786;28;20399;-77
2023/09/08 01:25:17;;;;;;;9.18;7.38;;;18.50;53.70;;;;;;5017132;28;20398;-76
2023/09/08 01:27:49;;;;;;;11.90;8.73;;;18.40;53.90;;;;;;5037275;28;20380;-76
2023/09/08 01:30:15;;;;;;;13.20;8.40;;;18.50;54.10;;;;;;5037088;28;20426;-76
2023/09/08 01:32:42;;;;;;;16.10;8.98;;;18.40;54.20;;;;;;5033185;28;20403;-77
2023/09/08 01:35:09;;;;;;;10.30;8.05;;;18.30;54.80;;;;;;5033037;28;20409;-77
2023/09/08 01:37:34;;;;;;;12.13;8.43;;;18.20;55.80;;;;;;5032679;28;20426;-77
2023/09/08 01:40:00;;;;;;;10.02;7.90;;;18.10;56.60;;;;;;5015085;28;20418;-77
2023/09/08 01:42:25;;;;;;;9.87;8.10;;;18.00;56.90;;;;;;5032273;28;20402;-77
2023/09/08 01:44:51;;;;;;;12.38;9.10;;;18.00;57.80;;;;;;5032556;28;20386;-77
2023/09/08 01:47:17;;;;;;;10.13;7.97;;;17.90;58.30;;;;;;5033373;28;20459;-77
2023/09/08 01:49:42;;;;;;;11.10;8.67;;;17.90;58.70;;;;;;5032869;28;20882;-77
2023/09/08 01:52:08;;;;;;;13.77;9.00;;;17.90;58.90;;;;;;5033385;28;20387;-78
2023/09/08 01:54:33;;;;;;;11.23;8.70;;;17.90;59.60;;;;;;5035488;28;20395;-77
2023/09/08 01:56:59;;;;;;;12.83;9.30;;;17.90;59.60;;;;;;5034174;28;20421;-77
2023/09/08 01:59:24;;;;;;;10.38;8.20;;;17.90;59.60;;;;;;5034303;28;20383;-77
2023/09/08 02:01:50;;;;;;;13.80;8.40;;;18.10;59.10;;;;;;5017331;28;20399;-77
2023/09/08 02:04:15;;;;;;;10.32;8.60;;;18.00;58.70;;;;;;5033244;28;20473;-77
2023/09/08 02:06:41;;;;;;;14.63;8.80;;;17.90;60.40;;;;;;5033402;28;20383;-77
2023/09/08 02:09:09;;;;;;;12.77;8.80;;;17.80;61.70;;;;;;5033467;28;20747;-77
2023/09/08 02:11:35;;;;;;;11.95;8.70;;;17.70;62.00;;;;;;5014265;28;20421;-77
2023/09/08 02:14:00;;;;;;;12.07;8.47;;;17.60;63.40;;;;;;5033262;28;20391;-77
2023/09/08 02:16:26;;;;;;;10.30;8.60;;;17.50;64.30;;;;;;5034270;28;20445;-78
2023/09/08 02:18:51;;;;;;;12.02;9.40;;;17.40;65.60;;;;;;5014341;28;20391;-76
2023/09/08 02:21:17;;;;;;;12.83;8.60;;;17.40;66.40;;;;;;5031662;28;20391;-77
2023/09/08 02:23:42;;;;;;;11.50;8.83;;;17.40;67.70;;;;;;5032349;28;20414;-77
2023/09/08 02:26:08;;;;;;;10.50;8.48;;;17.50;66.30;;;;;;5014050;28;20379;-77
2023/09/08 02:28:34;;;;;;;13.37;9.63;;;17.40;67.20;;;;;;5031487;28;20569;-77
2023/09/08 02:30:59;;;;;;;11.70;9.17;;;17.40;68.20;;;;;;5031021;28;20747;-77
2023/09/08 02:33:25;;;;;;;11.20;8.45;;;17.40;68.20;;;;;;5031128;28;20383;-77
2023/09/08 02:35:51;;;;;;;11.40;9.48;;;17.40;68.50;;;;;;5034586;28;20387;-77
2023/09/08 02:38:17;;;;;;;12.70;9.43;;;17.30;69.00;;;;;;5034560;28;20387;-77
2023/09/08 02:40:43;;;;;;;14.60;9.80;;;17.20;70.40;;;;;;5033481;28;20380;-77
2023/09/08 02:43:09;;;;;;;13.88;9.63;;;17.20;71.00;;;;;;5033061;28;20449;-76
2023/09/08 02:45:34;;;;;;;12.40;9.23;;;17.10;72.00;;;;;;5035660;28;20383;-77
2023/09/08 02:48:00;;;;;;;15.63;9.87;;;17.10;72.50;;;;;;5033193;28;20379;-77
2023/09/08 02:50:25;;;;;;;17.00;10.13;;;17.00;74.30;;;;;;5032871;28;20394;-76
2023/09/08 02:52:51;;;;;;;12.80;9.80;;;17.20;73.20;;;;;;5035007;28;20399;-77
2023/09/08 02:55:16;;;;;;;15.70;8.83;;;17.40;71.70;;;;;;5031923;28;20387;-77
2023/09/08 02:57:42;;;;;;;14.23;9.30;;;17.50;68.70;;;;;;5030736;28;20895;-77
2023/09/08 03:00:08;;;;;;;11.52;9.13;;;17.50;67.90;;;;;;5012928;28;20391;-76
2023/09/08 03:02:34;;;;;;;16.97;9.90;;;17.50;69.70;;;;;;5030136;28;20414;-76
2023/09/08 03:05:02;;;;;;;12.88;9.70;;;17.70;67.50;;;;;;5055207;22;20430;-73
2023/09/08 03:07:28;;;;;;;12.20;9.02;;;17.70;67.00;;;;;;5032924;28;20400;-71
2023/09/08 03:09:54;;;;;;;13.53;9.20;;;17.50;68.60;;;;;;5049881;28;20382;-72
2023/09/08 03:12:19;;;;;;;17.20;11.87;;;17.40;69.20;;;;;;5050354;28;20472;-71
2023/09/08 03:14:45;;;;;;;22.60;13.60;;;17.40;69.30;;;;;;5050572;28;20390;-72
2023/09/08 03:17:11;;;;;;;20.63;14.00;;;17.30;70.40;;;;;;5050544;28;20443;-71
2023/09/08 03:19:37;;;;;;;17.40;11.85;;;17.30;70.60;;;;;;5050498;28;20830;-72
2023/09/08 03:22:02;;;;;;;12.60;9.70;;;17.20;71.40;;;;;;5050288;28;20401;-74
2023/09/08 03:24:28;;;;;;;12.33;9.50;;;17.20;71.30;;;;;;5049949;28;20857;-73
2023/09/08 03:26:54;;;;;;;13.87;10.50;;;17.20;72.00;;;;;;5051168;28;20401;-74
2023/09/08 03:29:19;;;;;;;12.38;9.52;;;17.20;72.50;;;;;;5050330;28;20582;-74
2023/09/08 03:31:45;;;;;;;18.97;9.70;;;17.10;72.90;;;;;;5050199;28;20538;-75
2023/09/08 03:34:10;;;;;;;10.90;9.23;;;17.10;73.20;;;;;;5050167;28;20454;-75
2023/09/08 03:36:36;;;;;;;13.60;9.60;;;17.20;72.00;;;;;;5050115;28;20394;-75
2023/09/08 03:39:02;;;;;;;16.13;10.23;;;17.20;71.70;;;;;;5050434;28;20491;-75
2023/09/08 03:41:28;;;;;;;13.60;9.95;;;17.20;71.10;;;;;;5032102;28;20409;-76
2023/09/08 03:43:54;;;;;;;17.60;9.55;;;17.30;70.50;;;;;;5050373;28;20385;-75
2023/09/08 03:46:19;;;;;;;14.10;9.70;;;17.30;69.50;;;;;;5050343;28;20385;-75
2023/09/08 03:48:45;;;;;;;15.20;10.17;;;17.30;68.90;;;;;;5050376;28;20393;-75
2023/09/08 03:51:10;;;;;;;13.27;9.40;;;17.40;68.60;;;;;;5050149;28;20373;-76
2023/09/08 03:53:36;;;;;;;14.60;9.83;;;17.40;68.40;;;;;;5050052;28;20390;-75
2023/09/08 03:56:01;;;;;;;17.20;9.60;;;17.40;68.80;;;;;;5050188;28;20862;-75
2023/09/08 03:58:27;;;;;;;12.40;9.32;;;17.30;69.20;;;;;;5049901;28;20416;-75
2023/09/08 04:00:53;;;;;;;14.73;9.32;;;17.30;70.00;;;;;;5033009;28;20378;-75
2023/09/08 04:03:18;;;;;;;12.53;9.23;;;17.30;69.80;;;;;;5053855;28;20409;-75
2023/09/08 04:05:44;;;;;;;14.40;9.80;;;17.30;69.70;;;;;;5054153;28;20400;-75
2023/09/08 04:08:09;;;;;;;12.32;9.45;;;17.30;70.20;;;;;;5053794;28;20412;-75
2023/09/08 04:10:35;;;;;;;14.20;9.70;;;17.30;69.90;;;;;;5053875;28;20385;-75
2023/09/08 04:13:00;;;;;;;14.07;9.77;;;17.30;69.60;;;;;;5035900;28;20932;-75
2023/09/08 04:15:26;;;;;;;10.82;9.00;;;17.30;69.60;;;;;;5053673;28;20385;-75
2023/09/08 04:17:51;;;;;;;12.20;9.40;;;17.30;70.00;;;;;;5053848;28;20400;-74
2023/09/08 04:20:17;;;;;;;13.60;8.82;;;17.30;69.70;;;;;;5054087;28;20397;-76
2023/09/08 04:22:43;;;;;;;18.23;10.00;;;17.30;69.10;;;;;;5053366;28;20402;-76
2023/09/08 04:25:10;;;;;;;14.20;9.90;;;17.30;68.70;;;;;;5053582;28;20378;-75
2023/09/08 04:27:36;;;;;;;14.83;9.30;;;17.30;68.40;;;;;;5056498;28;20385;-76
2023/09/08 04:30:03;;;;;;;12.27;9.40;;;17.30;69.20;;;;;;5062968;28;20417;-75
2023/09/08 04:32:28;;;;;;;16.60;10.15;;;17.30;69.40;;;;;;5053466;28;20396;-75
2023/09/08 04:34:54;;;;;;;17.50;10.07;;;17.20;70.40;;;;;;5054371;28;20400;-75
2023/09/08 04:37:19;;;;;;;15.97;9.90;;;17.30;69.10;;;;;;5054354;28;20464;-75
2023/09/08 04:39:45;;;;;;;13.18;9.75;;;17.30;68.40;;;;;;5054501;28;20378;-75
2023/09/08 04:42:11;;;;;;;12.67;9.40;;;17.40;67.80;;;;;;5054561;28;20448;-75
2023/09/08 04:44:36;;;;;;;13.50;9.10;;;17.30;67.90;;;;;;5054842;28;20409;-74
2023/09/08 04:47:02;;;;;;;12.07;9.43;;;17.30;69.00;;;;;;5053968;28;20411;-75
2023/09/08 04:49:28;;;;;;;13.37;9.30;;;17.30;68.90;;;;;;5055046;28;20381;-75
2023/09/08 04:51:54;;;;;;;13.73;10.05;;;17.30;68.70;;;;;;5054048;28;20385;-76
2023/09/08 04:54:20;;;;;;;18.92;10.15;;;17.30;67.90;;;;;;5036279;28;20381;-75
2023/09/08 04:56:45;;;;;;;15.23;9.52;;;17.30;68.20;;;;;;5054048;28;20893;-75
2023/09/08 04:59:11;;;;;;;16.40;9.40;;;17.30;68.10;;;;;;5053562;28;20435;-75
2023/09/08 05:01:37;;;;;;;20.07;10.00;;;17.30;68.30;;;;;;5054993;28;20808;-76
2023/09/08 05:04:04;;;;;;;14.93;9.80;;;17.20;68.10;;;;;;5053476;28;20757;-75
2023/09/08 05:06:29;;;;;;;18.00;9.40;;;17.20;69.00;;;;;;5053036;28;20511;-75
2023/09/08 05:08:55;;;;;;;19.63;10.40;;;17.30;69.20;;;;;;5053170;28;20881;-75
2023/09/08 05:11:21;;;;;;;14.35;10.10;;;17.20;69.50;;;;;;5052877;28;20431;-75
2023/09/08 05:13:46;;;;;;;16.97;9.80;;;17.20;69.10;;;;;;5035828;28;20386;-77
2023/09/08 05:16:12;;;;;;;12.90;10.30;;;17.20;69.00;;;;;;5054241;28;20404;-74
2023/09/08 05:18:41;;;;;;;17.70;10.10;;;17.20;69.50;;;;;;5054647;28;20418;-74
2023/09/08 05:21:07;;;;;;;14.30;10.10;;;17.20;69.00;;;;;;5053474;28;20468;-74
2023/09/08 05:23:33;;;;;;;15.70;9.57;;;17.20;69.20;;;;;;5052458;28;20481;-74
2023/09/08 05:26:00;;;;;;;14.82;10.80;;;17.20;68.20;;;;;;5052150;28;20452;-75
2023/09/08 05:28:26;;;;;;;16.30;9.98;;;17.30;68.20;;;;;;5052420;28;20750;-75
2023/09/08 05:30:52;;;;;;;18.60;9.80;;;17.30;68.20;;;;;;5051798;28;20377;-74
2023/09/08 05:33:17;;;;;;;14.97;9.60;;;17.30;67.70;;;;;;5052788;28;20738;-74
2023/09/08 05:35:44;;;;;;;12.20;9.70;;;17.40;67.20;;;;;;5051879;28;20388;-75
2023/09/08 05:38:10;;;;;;;15.25;10.40;;;17.40;66.90;;;;;;5052430;28;20385;-75
2023/09/08 05:40:35;;;;;;;15.45;9.68;;;17.50;66.70;;;;;;5054973;28;20381;-75
2023/09/08 05:43:02;;;;;;;13.48;10.70;;;17.50;65.30;;;;;;5052594;28;20458;-76
2023/09/08 05:45:27;;;;;;;15.23;9.65;;;17.60;64.70;;;;;;5052065;28;20386;-74
2023/09/08 05:47:53;;;;;;;15.52;10.70;;;17.60;64.50;;;;;;5051773;28;20403;-74
2023/09/08 05:50:19;;;;;;;14.87;9.50;;;17.60;64.10;;;;;;5053179;28;20473;-74
2023/09/08 05:52:44;;;;;;;16.85;10.50;;;17.70;64.20;;;;;;5051684;28;20452;-75
2023/09/08 05:55:10;;;;;;;18.67;9.90;;;17.70;63.40;;;;;;5051537;28;20692;-75
2023/09/08 05:57:36;;;;;;;14.60;9.97;;;17.80;61.60;;;;;;5051787;28;20389;-75
2023/09/08 06:00:06;;;;;;;17.10;10.50;;;17.90;61.40;;;;;;5052070;28;20431;-75
2023/09/08 06:02:31;;;;;;;16.05;9.65;;;17.90;60.40;;;;;;5051527;28;20501;-75
2023/09/08 06:04:57;;;;;;;15.48;9.65;;;18.00;60.10;;;;;;5051834;28;20425;-74
2023/09/08 06:07:23;;;;;;;18.23;9.20;;;18.10;59.80;;;;;;5031551;28;20393;-74
2023/09/08 06:09:48;;;;;;;12.43;9.10;;;18.10;59.00;;;;;;5012164;28;20429;-74
2023/09/08 06:12:14;;;;;;;13.35;9.60;;;18.20;59.10;;;;;;5011835;28;20808;-75
2023/09/08 06:14:39;;;;;;;13.23;8.70;;;18.20;58.30;;;;;;5011876;28;20455;-74
2023/09/08 06:17:05;;;;;;;13.10;9.17;;;18.30;58.40;;;;;;5012537;28;20951;-76
2023/09/08 06:19:30;;;;;;;14.23;9.57;;;18.40;58.20;;;;;;5011803;28;20401;-74
2023/09/08 06:21:56;;;;;;;12.30;8.93;;;18.40;57.60;;;;;;5012048;28;20409;-74
2023/09/08 06:24:21;;;;;;;15.43;9.13;;;18.50;56.80;;;;;;5011869;28;20377;-75
2023/09/08 06:26:49;;;;;;;10.82;8.90;;;18.60;55.70;;;;;;5011573;28;20381;-75
2023/09/08 06:29:15;;;;;;;14.10;8.73;;;18.60;54.30;;;;;;5011086;28;20389;-75
2023/09/08 06:31:40;;;;;;;11.13;8.90;;;18.80;53.80;;;;;;5013006;28;20454;-75
2023/09/08 06:34:06;;;;;;;12.70;8.73;;;18.90;51.80;;;;;;5011380;28;20407;-75
2023/09/08 06:36:31;;;;;;;12.50;8.73;;;19.00;51.40;;;;;;5011433;28;20385;-75
2023/09/08 06:38:57;;;;;;;16.83;8.80;;;19.00;51.30;;;;;;5012094;28;20384;-75
2023/09/08 06:41:23;;;;;;;17.70;9.00;;;19.20;50.80;;;;;;5011987;28;20404;-75
2023/09/08 06:43:49;;;;;;;15.45;8.90;;;19.30;50.40;;;;;;5014488;28;20385;-75
2023/09/08 06:46:15;;;;;;;12.07;8.50;;;19.30;50.60;;;;;;5011461;28;20750;-77
2023/09/08 06:48:40;;;;;;;12.30;8.70;;;19.40;49.20;;;;;;5012373;28;20457;-75
2023/09/08 06:51:06;;;;;;;12.70;8.50;;;19.60;47.70;;;;;;5018235;28;20421;-74
2023/09/08 06:53:32;;;;;;;12.52;9.32;;;19.70;47.40;;;;;;5022198;28;20773;-75
2023/09/08 06:55:57;;;;;;;14.80;8.57;;;19.70;46.40;;;;;;5018014;28;20420;-75
2023/09/08 06:58:23;;;;;;;22.60;14.63;;;19.80;46.50;;;;;;5011868;28;20413;-75
2023/09/08 07:00:50;;;;;;;17.33;11.90;;;19.90;46.60;;;;;;5011708;28;20421;-75
2023/09/08 07:03:16;;;;;;;16.23;11.27;;;20.00;45.90;;;;;;5014850;28;20408;-75
2023/09/08 07:05:41;;;;;;;26.50;15.55;;;20.20;44.30;;;;;;5012958;28;20401;-75
2023/09/08 07:08:07;;;;;;;22.50;14.87;;;20.30;44.20;;;;;;5013883;28;20385;-75
2023/09/08 07:10:32;;;;;;;21.40;13.20;;;20.30;43.70;;;;;;5017045;28;20392;-75
2023/09/08 07:12:58;;;;;;;17.90;11.13;;;20.50;42.00;;;;;;5014697;28;20389;-75
2023/09/08 07:15:23;;;;;;;13.90;11.10;;;20.60;40.70;;;;;;5017749;28;20447;-75
2023/09/08 07:17:49;;;;;;;13.38;9.02;;;20.70;40.90;;;;;;5024366;28;20393;-76
2023/09/08 07:20:15;;;;;;;14.00;9.83;;;20.80;40.40;;;;;;5018229;28;20508;-76
2023/09/08 07:22:40;;;;;;;17.20;12.20;;;20.80;39.50;;;;;;5016963;28;20832;-76
2023/09/08 07:25:07;;;;;;;18.30;10.20;;;21.00;39.50;;;;;;5015642;28;20389;-76
2023/09/08 07:27:32;;;;;;;13.55;9.25;;;21.10;39.10;;;;;;5010717;28;20862;-76
2023/09/08 07:29:58;;;;;;;22.05;15.05;;;21.30;38.40;;;;;;5010803;28;20535;-74
2023/09/08 07:32:24;;;;;;;14.90;9.70;;;21.40;37.40;;;;;;5010249;28;20888;-75
2023/09/08 07:34:54;;;;;;;27.90;19.30;;;21.50;36.90;;;;;;5010658;28;20404;-75
2023/09/08 07:37:22;;;;;;;10.75;7.50;;;21.60;37.50;;;;;;5010184;28;20947;-75
2023/09/08 07:39:48;;;;;;;9.57;7.85;;;21.70;36.60;;;;;;5008978;28;20486;-75
2023/09/08 07:42:14;;;;;;;13.10;7.00;;;21.90;35.20;;;;;;5010040;28;20471;-74
2023/09/08 07:44:39;;;;;;;10.05;6.95;;;22.00;33.60;;;;;;5010385;28;20500;-75
2023/09/08 07:47:05;;;;;;;11.48;7.30;;;22.10;33.10;;;;;;5010423;28;20397;-76
2023/09/08 07:49:32;;;;;;;10.93;6.30;;;22.20;32.80;;;;;;5011092;28;20381;-75
2023/09/08 07:51:58;;;;;;;9.70;6.72;;;22.40;31.60;;;;;;5010395;28;20468;-75
2023/09/08 07:54:23;;;;;;;12.90;7.17;;;22.50;31.40;;;;;;5010431;28;20412;-75
2023/09/08 07:56:49;;;;;;;10.20;6.47;;;22.60;30.80;;;;;;5010345;28;20388;-75
2023/09/08 07:59:14;;;;;;;15.03;8.87;;;22.70;30.60;;;;;;5010289;28;20873;-76
2023/09/08 08:01:40;;;;;;;11.75;6.95;;;22.70;30.30;;;;;;5010205;28;20409;-75
2023/09/08 08:04:06;;;;;;;14.90;6.40;;;22.90;30.10;;;;;;5010139;28;20431;-75
2023/09/08 08:06:31;;;;;;;10.13;6.40;;;23.00;29.60;;;;;;5010153;28;20393;-75
2023/09/08 08:08:57;;;;;;;10.20;6.23;;;23.00;28.80;;;;;;5010468;28;20495;-76
2023/09/08 08:11:23;;;;;;;8.27;6.03;;;23.10;29.50;;;;;;5010273;28;20380;-75
2023/09/08 08:13:48;;;;;;;10.40;5.90;;;23.20;28.80;;;;;;5010039;28;20444;-75
2023/09/08 08:16:14;;;;;;;11.17;6.50;;;23.40;28.70;;;;;;5010237;28;20397;-76
2023/09/08 08:18:39;;;;;;;11.55;6.22;;;23.40;28.50;;;;;;5010433;28;20865;-76
2023/09/08 08:21:05;;;;;;;8.77;6.50;;;23.60;28.40;;;;;;5010056;28;20384;-75
2023/09/08 08:23:31;;;;;;;8.68;6.10;;;23.60;27.40;;;;;;5009945;28;20408;-75
2023/09/08 08:25:57;;;;;;;8.60;6.57;;;23.70;27.60;;;;;;5009905;28;20927;-75
2023/09/08 08:28:24;;;;;;;9.60;6.10;;;23.70;27.10;;;;;;5010560;28;20889;-75
2023/09/08 08:30:50;;;;;;;10.57;6.65;;;23.80;27.50;;;;;;5010106;28;20389;-76
2023/09/08 08:33:15;;;;;;;9.20;6.50;;;23.80;26.90;;;;;;5010124;28;20385;-75
2023/09/08 08:35:41;;;;;;;9.37;5.90;;;23.90;26.80;;;;;;5009824;28;20416;-75
2023/09/08 08:38:07;;;;;;;14.30;6.50;;;24.00;27.50;;;;;;5009984;28;20777;-75
2023/09/08 08:40:34;;;;;;;7.18;5.70;;;24.10;26.50;;;;;;5009829;28;20477;-75
2023/09/08 08:43:00;;;;;;;11.77;6.18;;;24.20;25.70;;;;;;5009796;28;20409;-75
2023/09/08 08:45:26;;;;;;;12.07;6.03;;;24.30;25.40;;;;;;5010002;28;20463;-75
2023/09/08 08:47:52;;;;;;;8.82;5.72;;;24.30;25.70;;;;;;5010663;28;20389;-76
2023/09/08 08:50:19;;;;;;;12.00;6.00;;;24.40;24.80;;;;;;5013297;28;20381;-74
2023/09/08 08:52:45;;;;;;;8.38;6.15;;;24.50;24.80;;;;;;5013249;28;20690;-75
2023/09/08 08:55:11;;;;;;;7.20;5.97;;;24.60;24.00;;;;;;5012971;28;20385;-76
2023/09/08 08:57:38;;;;;;;9.20;5.60;;;24.60;24.70;;;;;;5014618;28;20396;-75
2023/09/08 09:00:11;;;;;;;10.88;6.30;;;24.60;24.80;;;;;;5013114;28;20396;-75
2023/09/08 09:02:39;;;;;;;9.57;6.05;;;24.70;24.40;;;;;;5012597;28;20785;-74
2023/09/08 09:05:06;;;;;;;11.43;7.38;;;24.80;24.00;;;;;;5013401;28;20397;-74
2023/09/08 09:07:32;;;;;;;8.90;6.13;;;24.90;23.60;;;;;;5012945;28;20472;-75
2023/09/08 09:09:58;;;;;;;15.25;6.30;;;25.00;23.20;;;;;;5013001;28;20769;-76
2023/09/08 09:12:24;;;;;;;10.47;6.73;;;25.10;24.10;;;;;;5012886;28;20404;-76
2023/09/08 09:14:53;;;;;;;10.65;6.20;;;25.10;24.00;;;;;;5012793;28;20385;-75
2023/09/08 09:17:19;;;;;;;8.50;5.93;;;25.30;23.80;;;;;;4995263;28;20490;-74
2023/09/08 09:19:44;;;;;;;7.50;5.90;;;25.30;22.10;;;;;;5012885;28;20420;-75
2023/09/08 09:22:10;;;;;;;12.73;6.18;;;25.40;21.90;;;;;;5012641;28;20443;-75
2023/09/08 09:24:40;;;;;;;11.07;6.57;;;25.40;22.10;;;;;;5012660;28;20396;-75
2023/09/08 09:27:07;;;;;;;9.17;5.90;;;25.40;21.70;;;;;;5012395;28;20431;-75
2023/09/08 09:29:34;;;;;;;8.30;6.00;;;25.50;21.40;;;;;;5012254;28;20393;-75
2023/09/08 09:32:08;;;;;;;7.30;5.65;;;25.60;21.00;;;;;;5012184;28;20389;-75
2023/09/08 09:34:34;;;;;;;7.00;5.80;;;25.70;21.10;;;;;;5012434;28;20490;-75
2023/09/08 09:37:00;;;;;;;10.15;5.90;;;25.80;20.80;;;;;;5012513;28;20389;-75
2023/09/08 09:39:26;;;;;;;12.70;6.10;;;25.90;21.20;;;;;;5012279;28;20907;-74
2023/09/08 09:41:56;;;;;;;12.05;6.30;;;26.00;21.30;;;;;;5012433;28;20413;-75
2023/09/08 09:44:22;;;;;;;12.68;6.50;;;26.10;20.80;;;;;;5012415;28;20389;-75
2023/09/08 09:46:51;;;;;;;7.67;6.00;;;26.00;21.10;;;;;;5012490;28;20403;-75
2023/09/08 09:49:19;;;;;;;9.95;6.10;;;26.10;20.60;;;;;;5013704;28;20404;-74
2023/09/08 09:51:47;;;;;;;17.77;6.10;;;26.20;20.20;;;;;;4994384;28;20561;-74
2023/09/08 09:54:14;;;;;;;8.05;6.00;;;26.30;20.40;;;;;;5012306;28;20620;-75
2023/09/08 09:56:41;;;;;;;9.93;6.20;;;26.40;19.90;;;;;;5013562;28;20907;-74
2023/09/08 09:59:11;;;;;;;11.00;6.20;;;26.50;19.20;;;;;;5012668;28;20439;-75
2023/09/08 10:01:37;;;;;;;10.18;6.30;;;26.50;19.50;;;;;;5010725;28;20495;-75
2023/09/08 10:04:04;;;;;;;8.50;5.75;;;26.50;19.90;;;;;;5016748;28;20502;-75
2023/09/08 10:06:34;;;;;;;8.35;6.25;;;26.60;19.70;;;;;;5013277;28;20455;-75
2023/09/08 10:09:04;;;;;;;9.60;6.20;;;26.70;19.60;;;;;;5011949;28;20400;-75
2023/09/08 10:11:34;;;;;;;9.07;6.07;;;26.80;20.00;;;;;;5011647;28;20385;-75
2023/09/08 10:14:00;;;;;;;8.30;6.38;;;26.90;19.90;;;;;;5013158;28;20757;-74
2023/09/08 10:16:28;;;;;;;7.28;6.18;;;27.00;19.40;;;;;;5013282;28;20400;-76
2023/09/08 10:18:57;;;;;;;8.55;6.07;;;27.00;18.80;;;;;;5012404;28;20825;-75
2023/09/08 10:21:26;;;;;;;9.75;5.72;;;27.10;18.30;;;;;;5011629;28;20610;-76
2023/09/08 10:24:03;;;;;;;8.20;6.38;;;27.30;18.70;;;;;;4994561;28;20389;-75
2023/09/08 10:26:31;;;;;;;8.20;6.00;;;27.20;18.10;;;;;;5011781;28;20405;-75
2023/09/08 10:28:57;;;;;;;10.00;5.82;;;27.40;18.10;;;;;;5011656;28;20377;-76
2023/09/08 10:31:27;;;;;;;10.90;6.10;;;27.40;18.00;;;;;;5011580;28;20389;-75
2023/09/08 10:33:56;;;;;;;10.03;6.13;;;27.50;18.00;;;;;;4993944;28;20785;-75
2023/09/08 10:36:24;;;;;;;9.45;5.88;;;27.50;17.80;;;;;;5011419;28;20746;-75
2023/09/08 10:38:51;;;;;;;9.00;6.10;;;27.60;17.70;;;;;;5011647;28;20422;-75
2023/09/08 10:41:17;;;;;;;9.32;5.72;;;27.60;17.30;;;;;;5011150;28;20392;-75
2023/09/08 10:43:54;;;;;;;12.27;6.63;;;27.60;18.10;;;;;;5013096;28;20448;-75
2023/09/08 10:46:25;;;;;;;11.18;6.22;;;27.60;17.70;;;;;;5011436;28;20385;-75
2023/09/08 10:48:53;;;;;;;6.53;5.70;;;27.80;17.10;;;;;;5010942;28;20380;-75
2023/09/08 10:51:21;;;;;;;8.98;5.63;;;27.70;16.90;;;;;;5010857;28;20420;-75
2023/09/08 10:53:48;;;;;;;8.40;6.00;;;27.70;17.20;;;;;;5010939;28;20381;-74
2023/09/08 10:56:13;;;;;;;8.15;6.20;;;27.70;17.80;;;;;;5011168;28;20390;-75
2023/09/08 10:58:42;;;;;;;9.13;6.23;;;27.80;17.40;;;;;;5010878;28;20405;-75
2023/09/08 11:01:13;;;;;;;8.23;5.68;;;28.00;18.10;;;;;;5011075;28;20730;-75
2023/09/08 11:03:39;;;;;;;11.23;6.00;;;28.00;17.50;;;;;;5009538;28;20562;-76
2023/09/08 11:06:05;;;;;;;8.98;5.78;;;28.10;17.30;;;;;;5010924;28;20443;-75
2023/09/08 11:08:32;;;;;;;11.60;6.72;;;28.10;17.10;;;;;;5011114;28;20753;-76
2023/09/08 11:10:59;;;;;;;7.40;5.45;;;28.00;17.80;;;;;;5009957;28;20939;-75
2023/09/08 11:13:24;;;;;;;9.80;6.13;;;28.20;17.90;;;;;;5011099;28;20412;-75
2023/09/08 11:15:53;;;;;;;7.97;6.20;;;28.20;17.10;;;;;;5010795;28;21008;-75
2023/09/08 11:18:28;;;;;;;9.57;5.78;;;28.20;16.80;;;;;;5010917;28;20384;-75
2023/09/08 11:20:54;;;;;;;9.52;5.80;;;28.30;16.70;;;;;;5010779;28;20472;-75
2023/09/08 11:23:21;;;;;;;9.35;6.60;;;28.30;16.70;;;;;;5011150;28;20915;-74
2023/09/08 11:25:47;;;;;;;8.07;5.70;;;28.40;16.70;;;;;;5009806;28;20897;-74
2023/09/08 11:28:15;;;;;;;10.60;6.20;;;28.40;16.30;;;;;;5010614;28;20483;-75
2023/09/08 11:30:41;;;;;;;9.02;6.30;;;28.40;17.30;;;;;;5010527;28;20392;-75
2023/09/08 11:33:24;;;;;;;8.20;6.30;;;28.60;16.70;;;;;;5010710;28;20392;-75
2023/09/08 11:35:54;;;;;;;9.18;6.10;;;28.70;15.90;;;;;;5010821;28;20401;-74
2023/09/08 11:38:28;;;;;;;8.18;5.90;;;28.70;16.00;;;;;;5010873;28;20389;-76
2023/09/08 11:40:57;;;;;;;14.52;6.80;;;28.70;16.50;;;;;;5010680;28;20424;-75
2023/09/08 11:43:22;;;;;;;8.17;6.30;;;28.70;16.20;;;;;;5011236;28;20499;-75
2023/09/08 11:45:48;;;;;;;8.93;6.00;;;28.70;16.10;;;;;;5011450;28;20436;-75
2023/09/08 11:48:15;;;;;;;9.63;6.80;;;28.60;16.40;;;;;;5012287;28;20388;-75
2023/09/08 11:50:44;;;;;;;11.13;6.90;;;28.70;16.40;;;;;;5011546;28;20385;-74
2023/09/08 11:53:09;;;;;;;9.50;6.05;;;28.80;16.00;;;;;;5011116;28;20385;-75
2023/09/08 11:55:36;;;;;;;7.60;6.22;;;28.80;15.60;;;;;;5010605;28;20395;-75
2023/09/08 11:58:02;;;;;;;12.52;6.30;;;29.00;16.20;;;;;;5010869;28;20389;-75
2023/09/08 12:00:29;;;;;;;8.15;6.10;;;28.90;15.40;;;;;;4992943;28;20388;-75
2023/09/08 12:02:55;;;;;;;7.20;6.20;;;28.80;15.70;;;;;;5010230;28;20407;-75
2023/09/08 12:05:26;;;;;;;10.00;6.20;;;29.00;16.40;;;;;;5010262;28;20401;-75
2023/09/08 12:07:56;;;;;;;12.50;6.85;;;29.10;16.10;;;;;;5010631;28;20718;-75
2023/09/08 12:10:22;;;;;;;10.95;5.93;;;29.00;15.70;;;;;;5010564;28;20388;-75
2023/09/08 12:12:53;;;;;;;10.00;6.60;;;29.10;16.10;;;;;;5010502;28;20392;-75
2023/09/08 12:15:38;;;;;;;8.05;6.50;;;29.20;16.20;;;;;;5010413;28;20409;-75
2023/09/08 12:18:05;;;;;;;9.17;5.97;;;29.30;15.60;;;;;;5010431;28;20450;-75
2023/09/08 12:20:32;;;;;;;10.25;6.30;;;29.30;15.80;;;;;;5010125;28;20397;-75
2023/09/08 12:23:01;;;;;;;11.33;6.50;;;29.40;15.20;;;;;;5013183;28;20491;-75
2023/09/08 12:25:28;;;;;;;7.93;6.20;;;29.50;15.50;;;;;;5013778;28;20877;-74
2023/09/08 12:27:54;;;;;;;11.32;6.75;;;29.60;15.20;;;;;;5014674;28;20381;-75
2023/09/08 12:30:21;;;;;;;10.85;6.70;;;29.70;14.60;;;;;;5014433;28;20424;-75
2023/09/08 12:32:49;;;;;;;11.77;6.13;;;29.70;14.20;;;;;;5013895;28;20880;-76
2023/09/08 12:35:23;;;;;;;11.18;6.65;;;29.70;14.40;;;;;;5013939;28;20393;-75